Time;durP1;ratioP1;P1;durP2;ratioP2;P2;SDS_P1;SDS_P2;PMS_P1;PMS_P2;Temp;Humidity;BMP_temperature;BMP_pressure;BME280_temperature;BME280_humidity;BME280_pressure;Samples;Min_cycle;Max_cycle;Signal;HPM_P1;HPM_P2
2020/12/02 00:02:31;;;;;;;15.80;12.00;;;4.70;99.90;;;;;;5088005;28;20196;-55
2020/12/02 00:05:03;;;;;;;13.50;11.10;;;4.80;99.90;;;;;;5103233;28;20253;-54
2020/12/02 00:07:32;;;;;;;16.63;11.32;;;4.60;99.90;;;;;;5089837;28;20251;-54
2020/12/02 00:09:58;;;;;;;14.90;10.65;;;4.60;99.90;;;;;;5088200;28;20316;-54
2020/12/02 00:12:24;;;;;;;13.70;9.90;;;4.50;99.90;;;;;;5087618;28;20185;-54
2020/12/02 00:14:50;;;;;;;13.85;11.00;;;4.40;99.90;;;;;;5093463;28;20205;-54
2020/12/02 00:17:19;;;;;;;13.77;11.17;;;4.80;99.90;;;;;;5098185;28;20183;-55
2020/12/02 00:19:49;;;;;;;15.00;11.30;;;4.80;99.90;;;;;;5086027;28;20268;-55
2020/12/02 00:22:21;;;;;;;13.20;10.95;;;4.60;99.90;;;;;;5087466;28;20180;-54
2020/12/02 00:24:48;;;;;;;13.75;9.90;;;4.50;99.90;;;;;;5107240;27;20285;-54
2020/12/02 00:27:25;;;;;;;14.23;9.85;;;4.50;99.90;;;;;;5088087;28;20200;-54
2020/12/02 00:29:51;;;;;;;14.38;10.38;;;4.50;99.90;;;;;;5100764;28;20188;-55
2020/12/02 00:32:34;;;;;;;11.90;9.73;;;4.70;99.90;;;;;;5101865;28;20186;-54
2020/12/02 00:35:01;;;;;;;15.50;11.48;;;4.60;99.90;;;;;;5086031;28;20211;-54
2020/12/02 00:37:28;;;;;;;12.48;10.50;;;4.50;99.90;;;;;;5089399;28;20311;-55
2020/12/02 00:39:54;;;;;;;15.60;11.00;;;4.60;99.90;;;;;;5098279;28;20659;-55
2020/12/02 00:42:21;;;;;;;18.13;11.95;;;4.40;99.90;;;;;;5087949;28;20184;-55
2020/12/02 00:44:47;;;;;;;15.25;10.55;;;4.30;99.90;;;;;;5099152;28;20328;-55
2020/12/02 00:47:24;;;;;;;15.75;11.77;;;4.40;99.90;;;;;;5089218;28;20204;-55
2020/12/02 00:49:51;;;;;;;15.25;11.32;;;4.50;99.90;;;;;;5088422;28;20191;-55
2020/12/02 00:52:17;;;;;;;17.00;11.40;;;4.50;99.90;;;;;;5096558;28;20216;-55
2020/12/02 00:54:44;;;;;;;15.98;12.05;;;4.50;99.90;;;;;;5089299;28;20204;-55
2020/12/02 00:57:13;;;;;;;14.48;11.00;;;4.40;99.90;;;;;;5088022;28;20638;-55
2020/12/02 00:59:42;;;;;;;15.20;11.55;;;4.50;99.90;;;;;;5088446;28;20284;-55
2020/12/02 01:02:28;;;;;;;15.52;11.45;;;4.50;99.90;;;;;;5088477;28;20189;-55
2020/12/02 01:04:54;;;;;;;13.48;10.73;;;4.50;99.90;;;;;;5079879;28;20336;-55
2020/12/02 01:07:21;;;;;;;16.23;11.00;;;4.30;99.90;;;;;;5086184;28;20643;-55
2020/12/02 01:09:47;;;;;;;14.60;10.35;;;4.20;99.90;;;;;;5092736;28;20266;-55
2020/12/02 01:12:17;;;;;;;19.70;11.73;;;4.50;99.90;;;;;;5089205;28;20306;-54
2020/12/02 01:14:44;;;;;;;14.43;10.80;;;4.40;99.90;;;;;;5077935;28;20458;-55
2020/12/02 01:17:11;;;;;;;15.18;11.75;;;4.50;99.90;;;;;;5088199;28;20200;-55
2020/12/02 01:19:38;;;;;;;16.42;12.13;;;4.50;99.90;;;;;;5089809;28;20289;-55
2020/12/02 01:22:42;;;;;;;17.55;12.30;;;4.60;99.90;;;;;;5091179;28;20729;-55
2020/12/02 01:25:18;;;;;;;16.25;12.48;;;4.50;99.90;;;;;;5078944;28;20208;-55
2020/12/02 01:28:07;;;;;;;14.35;11.48;;;4.30;99.90;;;;;;5092674;28;20207;-55
2020/12/02 01:30:36;;;;;;;19.00;12.95;;;4.30;99.90;;;;;;5091243;28;20271;-54
2020/12/02 01:33:02;;;;;;;16.30;11.82;;;4.10;99.90;;;;;;5096218;27;20177;-55
2020/12/02 01:35:29;;;;;;;16.03;12.17;;;4.30;99.90;;;;;;5090861;28;20204;-55
2020/12/02 01:38:05;;;;;;;16.83;13.00;;;4.20;99.90;;;;;;5091047;28;20534;-55
2020/12/02 01:40:35;;;;;;;17.52;12.00;;;4.10;99.90;;;;;;5096386;28;20275;-54
2020/12/02 01:43:10;;;;;;;15.57;12.70;;;4.10;99.90;;;;;;5090978;28;20676;-55
2020/12/02 01:45:48;;;;;;;16.45;11.65;;;4.00;99.90;;;;;;5090592;28;20215;-54
2020/12/02 01:48:39;;;;;;;16.52;12.10;;;4.20;99.90;;;;;;5096565;28;20656;-55
2020/12/02 01:51:46;;;;;;;18.77;13.95;;;4.00;99.90;;;;;;5108446;28;20207;-54
2020/12/02 01:54:27;;;;;;;16.90;12.75;;;4.20;99.90;;;;;;5086910;28;20212;-54
2020/12/02 01:57:00;;;;;;;14.82;11.63;;;4.10;99.90;;;;;;5092740;28;20188;-54
2020/12/02 02:00:10;;;;;;;16.52;11.75;;;4.30;99.90;;;;;;5090511;28;20577;-54
2020/12/02 02:03:26;;;;;;;16.77;12.30;;;4.30;99.90;;;;;;5070273;28;20730;-54
2020/12/02 02:05:57;;;;;;;15.80;11.95;;;4.40;99.90;;;;;;5097636;27;20613;-54
2020/12/02 02:08:28;;;;;;;16.00;12.60;;;4.20;99.90;;;;;;5097142;28;20177;-54
2020/12/02 02:10:55;;;;;;;18.90;14.18;;;4.00;99.90;;;;;;5098525;28;20196;-54
2020/12/02 02:13:29;;;;;;;16.30;11.82;;;4.00;99.90;;;;;;5092856;28;20176;-54
2020/12/02 02:16:03;;;;;;;17.30;12.10;;;4.20;99.90;;;;;;5090450;28;20677;-54
2020/12/02 02:18:30;;;;;;;16.08;11.80;;;4.00;99.90;;;;;;5089452;28;20185;-55
2020/12/02 02:21:04;;;;;;;15.32;12.00;;;3.90;99.90;;;;;;5090027;28;20187;-55
2020/12/02 02:23:30;;;;;;;15.95;12.02;;;4.40;99.90;;;;;;5095451;28;20176;-54
2020/12/02 02:26:23;;;;;;;14.70;11.60;;;4.40;99.90;;;;;;5094607;28;20558;-54
2020/12/02 02:29:07;;;;;;;16.00;12.25;;;4.20;99.90;;;;;;5090999;28;20542;-54
2020/12/02 02:31:39;;;;;;;16.23;11.68;;;4.00;99.90;;;;;;5093508;28;20180;-54
2020/12/02 02:34:05;;;;;;;16.40;12.35;;;4.30;99.90;;;;;;5092914;28;20200;-54
2020/12/02 02:36:31;;;;;;;13.75;11.65;;;4.00;99.90;;;;;;5090588;28;20188;-54
2020/12/02 02:38:58;;;;;;;18.27;11.90;;;4.30;99.90;;;;;;5089437;28;20334;-55
2020/12/02 02:41:26;;;;;;;14.68;12.32;;;4.10;99.90;;;;;;5093259;28;20281;-55
2020/12/02 02:43:52;;;;;;;14.10;11.35;;;4.40;99.90;;;;;;5090552;28;20193;-55
2020/12/02 02:46:18;;;;;;;16.75;11.60;;;4.50;99.90;;;;;;5088528;28;20548;-55
2020/12/02 02:48:44;;;;;;;15.87;12.30;;;4.50;99.90;;;;;;5090925;28;20180;-54
2020/12/02 02:51:10;;;;;;;15.30;11.53;;;4.50;99.90;;;;;;5091436;28;20180;-53
2020/12/02 02:53:36;;;;;;;16.08;13.30;;;4.30;99.90;;;;;;5089949;28;20189;-53
2020/12/02 02:56:02;;;;;;;15.45;11.85;;;4.40;99.90;;;;;;5093003;28;20226;-53
2020/12/02 02:58:28;;;;;;;16.87;11.67;;;4.40;99.90;;;;;;5099839;27;20204;-54
2020/12/02 03:00:56;;;;;;;15.55;11.38;;;4.40;99.90;;;;;;5094879;28;20511;-54
2020/12/02 03:03:22;;;;;;;15.07;11.70;;;4.50;99.90;;;;;;5097711;28;20734;-54
2020/12/02 03:05:49;;;;;;;15.57;11.20;;;4.30;99.90;;;;;;5089363;28;20212;-54
2020/12/02 03:08:16;;;;;;;18.25;12.73;;;4.20;99.90;;;;;;5096931;28;20438;-54
2020/12/02 03:10:44;;;;;;;19.70;13.00;;;4.50;99.90;;;;;;5094612;27;20200;-53
2020/12/02 03:13:31;;;;;;;19.33;11.93;;;4.40;99.90;;;;;;5092800;28;20203;-54
2020/12/02 03:16:00;;;;;;;16.65;11.80;;;4.30;99.90;;;;;;5085819;28;20206;-54
2020/12/02 03:18:26;;;;;;;18.40;12.23;;;4.30;99.90;;;;;;5089744;28;20275;-54
2020/12/02 03:20:59;;;;;;;17.13;11.40;;;4.20;99.90;;;;;;5098424;28;20279;-54
2020/12/02 03:23:26;;;;;;;16.67;11.82;;;4.20;99.90;;;;;;5095035;28;20444;-54
2020/12/02 03:25:52;;;;;;;17.73;12.70;;;4.00;99.90;;;;;;5088879;28;20709;-54
2020/12/02 03:28:18;;;;;;;17.53;12.37;;;4.10;99.90;;;;;;5088290;28;20275;-54
2020/12/02 03:30:45;;;;;;;18.05;11.35;;;4.40;99.90;;;;;;5090504;28;20449;-54
2020/12/02 03:33:13;;;;;;;16.10;12.00;;;4.40;99.90;;;;;;5088820;28;20180;-54
2020/12/02 03:35:39;;;;;;;15.65;11.77;;;4.40;99.90;;;;;;5096828;28;20199;-54
2020/12/02 03:38:05;;;;;;;16.00;12.27;;;4.60;99.90;;;;;;5089385;28;20196;-53
2020/12/02 03:40:30;;;;;;;14.33;11.63;;;4.50;99.90;;;;;;5089521;28;20238;-54
2020/12/02 03:42:57;;;;;;;15.20;11.77;;;4.50;99.90;;;;;;5093942;28;20486;-53
2020/12/02 03:45:23;;;;;;;17.20;12.02;;;4.30;99.90;;;;;;5093103;28;20269;-53
2020/12/02 03:47:48;;;;;;;15.67;12.20;;;4.30;99.90;;;;;;5090023;28;20208;-54
2020/12/02 03:50:14;;;;;;;15.87;12.40;;;3.90;99.90;;;;;;5094060;28;20188;-54
2020/12/02 03:52:41;;;;;;;14.82;11.05;;;4.20;99.90;;;;;;5092993;28;20184;-54
2020/12/02 03:55:07;;;;;;;14.90;11.07;;;4.20;99.90;;;;;;5083895;28;20655;-54
2020/12/02 03:57:33;;;;;;;14.82;11.18;;;4.60;99.90;;;;;;5092037;28;20574;-53
2020/12/02 04:00:00;;;;;;;13.98;11.23;;;4.30;99.90;;;;;;5103435;28;20189;-52
2020/12/02 04:02:25;;;;;;;17.45;11.82;;;4.20;99.90;;;;;;5097253;28;20342;-54
2020/12/02 04:04:51;;;;;;;13.70;11.17;;;4.30;99.90;;;;;;5094318;28;20733;-54
2020/12/02 04:07:17;;;;;;;14.97;11.67;;;4.20;99.90;;;;;;5095903;28;20489;-54
2020/12/02 04:09:42;;;;;;;15.00;11.40;;;4.40;99.90;;;;;;5087820;28;20662;-54
2020/12/02 04:12:08;;;;;;;15.30;11.13;;;4.30;99.90;;;;;;5092095;28;20238;-54
2020/12/02 04:14:34;;;;;;;13.10;11.70;;;4.20;99.90;;;;;;5093129;28;20208;-53
2020/12/02 04:16:59;;;;;;;15.97;12.10;;;4.50;99.90;;;;;;5088984;28;20560;-53
2020/12/02 04:19:25;;;;;;;15.07;11.27;;;4.30;99.90;;;;;;5089426;28;20207;-53
2020/12/02 04:21:55;;;;;;;14.33;11.40;;;4.40;99.90;;;;;;5097360;28;20587;-53
2020/12/02 04:24:21;;;;;;;15.95;11.43;;;4.50;99.90;;;;;;5090030;28;20872;-54
2020/12/02 04:26:46;;;;;;;14.00;10.73;;;4.60;99.90;;;;;;5096527;28;20703;-54
2020/12/02 04:29:12;;;;;;;13.40;9.87;;;4.50;99.90;;;;;;5089148;28;20852;-53
2020/12/02 04:31:38;;;;;;;16.13;11.73;;;4.30;99.90;;;;;;5091896;28;20193;-53
2020/12/02 04:34:03;;;;;;;15.90;11.80;;;4.50;99.90;;;;;;5098746;28;20196;-54
2020/12/02 04:36:29;;;;;;;14.30;11.60;;;4.10;99.90;;;;;;5099498;28;20218;-54
2020/12/02 04:38:54;;;;;;;15.00;11.67;;;4.40;99.90;;;;;;5085912;28;20185;-53
2020/12/02 04:41:20;;;;;;;15.80;11.50;;;4.50;99.90;;;;;;5099303;28;20563;-53
2020/12/02 04:43:48;;;;;;;12.90;10.80;;;4.50;99.90;;;;;;5092014;28;20199;-54
2020/12/02 04:46:18;;;;;;;16.75;12.90;;;4.60;99.90;;;;;;5088971;28;20262;-53
2020/12/02 04:48:48;;;;;;;13.68;10.82;;;4.60;99.90;;;;;;5088193;28;20691;-54
2020/12/02 04:51:22;;;;;;;15.70;11.93;;;4.70;99.90;;;;;;5088122;28;20186;-54
2020/12/02 04:53:51;;;;;;;15.63;12.30;;;4.50;99.90;;;;;;5090353;28;20188;-54
2020/12/02 04:56:18;;;;;;;14.32;10.77;;;4.50;99.90;;;;;;5089512;28;20188;-54
2020/12/02 04:58:47;;;;;;;14.77;11.68;;;4.40;99.90;;;;;;5086278;28;20666;-54
2020/12/02 05:01:24;;;;;;;15.40;11.43;;;4.50;99.90;;;;;;5088735;28;20193;-54
2020/12/02 05:04:03;;;;;;;15.20;12.25;;;4.50;99.90;;;;;;5100890;28;20254;-53
2020/12/02 05:06:32;;;;;;;14.32;11.43;;;4.40;99.90;;;;;;5086010;28;20257;-54
2020/12/02 05:09:17;;;;;;;12.55;10.50;;;4.40;99.90;;;;;;5078436;28;20200;-54
2020/12/02 05:11:53;;;;;;;13.13;10.50;;;4.50;99.90;;;;;;5078801;28;20546;-54
2020/12/02 05:14:19;;;;;;;12.57;8.88;;;4.60;99.90;;;;;;5088256;28;20686;-54
2020/12/02 05:16:56;;;;;;;12.10;9.30;;;4.40;99.90;;;;;;5088120;28;20199;-54
2020/12/02 05:19:22;;;;;;;13.65;10.73;;;4.30;99.90;;;;;;5090232;28;20262;-54
2020/12/02 05:21:47;;;;;;;14.70;10.80;;;4.40;99.90;;;;;;5081628;28;20177;-54
2020/12/02 05:24:16;;;;;;;12.90;10.30;;;4.20;99.90;;;;;;5088947;28;20216;-54
2020/12/02 05:26:48;;;;;;;14.50;10.30;;;4.40;99.90;;;;;;5087648;28;20204;-55
2020/12/02 05:29:16;;;;;;;13.60;10.95;;;4.10;99.90;;;;;;5089955;28;20192;-56
2020/12/02 05:31:44;;;;;;;14.20;9.63;;;4.50;99.90;;;;;;5087448;28;20610;-56
2020/12/02 05:34:15;;;;;;;13.13;10.48;;;4.20;99.90;;;;;;5100159;28;20201;-53
2020/12/02 05:36:47;;;;;;;13.10;10.43;;;4.30;99.90;;;;;;5097291;28;20249;-53
2020/12/02 05:39:27;;;;;;;14.50;10.68;;;4.50;99.90;;;;;;5094582;28;20188;-54
2020/12/02 05:41:55;;;;;;;13.23;9.80;;;4.60;99.90;;;;;;5089554;28;20295;-54
2020/12/02 05:44:30;;;;;;;13.57;10.85;;;4.50;99.90;;;;;;5097028;28;20223;-54
2020/12/02 05:47:02;;;;;;;13.80;10.00;;;4.40;99.90;;;;;;5100670;28;20211;-54
2020/12/02 05:49:42;;;;;;;13.82;10.57;;;4.70;99.90;;;;;;5086780;28;20330;-54
2020/12/02 05:52:25;;;;;;;10.80;9.52;;;4.60;99.90;;;;;;5098575;28;20697;-56
2020/12/02 05:55:13;;;;;;;13.63;10.60;;;4.40;99.90;;;;;;5086096;28;20775;-55
2020/12/02 05:57:42;;;;;;;14.18;10.00;;;4.50;99.90;;;;;;5083639;28;20188;-54
2020/12/02 06:00:12;;;;;;;13.80;10.48;;;4.60;99.90;;;;;;5079291;28;20188;-56
2020/12/02 06:02:38;;;;;;;12.80;10.55;;;4.50;99.90;;;;;;5088327;28;20199;-57
2020/12/02 06:05:09;;;;;;;11.50;8.90;;;4.60;99.90;;;;;;5093825;28;20570;-56
2020/12/02 06:08:06;;;;;;;14.93;10.68;;;4.60;99.90;;;;;;5088274;28;20594;-56
2020/12/02 06:10:53;;;;;;;13.75;10.15;;;4.60;99.90;;;;;;5075629;28;20262;-56
2020/12/02 06:13:44;;;;;;;12.52;10.07;;;4.40;99.90;;;;;;5090750;28;20180;-56
2020/12/02 06:16:30;;;;;;;12.35;10.27;;;4.30;99.90;;;;;;5093196;28;20188;-57
2020/12/02 06:19:14;;;;;;;12.02;9.15;;;4.30;99.90;;;;;;5097594;28;20598;-56
2020/12/02 06:21:43;;;;;;;13.63;10.25;;;4.40;99.90;;;;;;5101850;27;20188;-57
2020/12/02 06:24:12;;;;;;;13.18;10.07;;;4.10;99.90;;;;;;5100232;28;21023;-57
2020/12/02 06:26:39;;;;;;;12.15;9.43;;;4.40;99.90;;;;;;5087241;28;20689;-58
2020/12/02 06:29:14;;;;;;;14.23;10.63;;;4.60;99.90;;;;;;5091806;28;20180;-57
2020/12/02 06:31:40;;;;;;;14.43;10.27;;;4.60;99.90;;;;;;5092718;28;20214;-58
2020/12/02 06:34:22;;;;;;;15.73;10.63;;;4.10;99.90;;;;;;5089975;28;20208;-55
2020/12/02 06:37:04;;;;;;;15.07;10.30;;;4.30;99.90;;;;;;5084311;28;20212;-57
2020/12/02 06:39:36;;;;;;;12.70;9.63;;;4.30;99.90;;;;;;5085885;28;20617;-55
2020/12/02 06:42:21;;;;;;;17.70;10.80;;;4.40;99.90;;;;;;5083872;28;20605;-57
2020/12/02 06:45:11;;;;;;;14.55;10.18;;;4.70;99.90;;;;;;5084387;28;20197;-55
2020/12/02 06:48:03;;;;;;;15.60;10.05;;;4.80;99.90;;;;;;5075155;28;20402;-55
2020/12/02 06:50:36;;;;;;;14.65;10.20;;;4.90;99.90;;;;;;5077739;28;20270;-56
2020/12/02 06:53:18;;;;;;;17.15;10.20;;;4.80;99.90;;;;;;5089632;28;20188;-56
2020/12/02 06:55:47;;;;;;;10.02;8.38;;;4.90;99.90;;;;;;5085687;28;20208;-55
2020/12/02 06:58:14;;;;;;;13.15;10.02;;;4.80;99.90;;;;;;5099366;28;20239;-55
2020/12/02 07:00:56;;;;;;;15.80;10.00;;;4.50;99.90;;;;;;5091058;28;20229;-55
2020/12/02 07:03:21;;;;;;;15.85;10.27;;;4.50;99.90;;;;;;5086384;28;20185;-55
2020/12/02 07:05:50;;;;;;;14.57;9.80;;;4.30;99.90;;;;;;5087515;28;20215;-55
2020/12/02 07:08:31;;;;;;;13.73;9.27;;;4.30;99.90;;;;;;5088354;28;20261;-56
2020/12/02 07:11:01;;;;;;;12.77;8.63;;;4.80;99.90;;;;;;5102057;28;20229;-55
2020/12/02 07:13:29;;;;;;;11.82;8.52;;;4.70;99.90;;;;;;5092343;28;20181;-55
2020/12/02 07:15:55;;;;;;;14.38;10.10;;;4.30;99.90;;;;;;5100303;28;20299;-55
2020/12/02 07:18:23;;;;;;;13.67;9.37;;;4.30;99.90;;;;;;5087607;28;20270;-53
2020/12/02 07:21:04;;;;;;;15.07;9.00;;;4.30;99.90;;;;;;5088755;28;20234;-54
2020/12/02 07:23:32;;;;;;;13.55;10.13;;;4.20;99.90;;;;;;5086469;28;20275;-54
2020/12/02 07:26:00;;;;;;;14.40;9.77;;;4.50;99.90;;;;;;5089725;28;20205;-56
2020/12/02 07:28:25;;;;;;;15.98;10.25;;;4.50;99.90;;;;;;5088254;28;20185;-53
2020/12/02 07:30:51;;;;;;;14.23;10.20;;;4.70;99.90;;;;;;5087658;28;20196;-54
2020/12/02 07:33:28;;;;;;;13.90;9.50;;;4.50;99.90;;;;;;5087051;28;20188;-55
2020/12/02 07:36:05;;;;;;;16.88;10.75;;;4.40;99.90;;;;;;5097508;28;20228;-55
2020/12/02 07:38:30;;;;;;;17.42;10.30;;;4.50;99.90;;;;;;5084765;28;20664;-55
2020/12/02 07:41:09;;;;;;;16.43;10.23;;;4.30;99.90;;;;;;5088326;28;20184;-55
2020/12/02 07:43:36;;;;;;;13.35;9.20;;;4.40;99.90;;;;;;5087161;28;20188;-54
2020/12/02 07:46:02;;;;;;;16.98;9.90;;;4.60;99.90;;;;;;5089398;28;20251;-56
2020/12/02 07:48:29;;;;;;;12.50;9.73;;;4.50;99.90;;;;;;5088868;28;20274;-58
2020/12/02 07:51:04;;;;;;;15.82;10.90;;;4.30;99.90;;;;;;5094472;28;20427;-57
2020/12/02 07:53:41;;;;;;;15.73;9.82;;;4.20;99.90;;;;;;5115936;27;20180;-56
2020/12/02 07:56:35;;;;;;;13.07;10.88;;;4.50;99.90;;;;;;5093581;28;20218;-56
2020/12/02 07:59:31;;;;;;;15.82;9.90;;;4.40;99.90;;;;;;5092987;28;20195;-52
2020/12/02 08:01:59;;;;;;;15.48;9.93;;;4.60;99.90;;;;;;5076051;28;20283;-52
2020/12/02 08:04:49;;;;;;;12.98;10.00;;;4.80;99.90;;;;;;5084882;28;20249;-54
2020/12/02 08:07:15;;;;;;;17.45;10.50;;;4.50;99.90;;;;;;5081592;28;20277;-55
2020/12/02 08:09:47;;;;;;;12.47;9.10;;;4.50;99.90;;;;;;5090289;28;20649;-55
2020/12/02 08:12:15;;;;;;;14.27;10.15;;;4.70;99.90;;;;;;5090051;28;20430;-55
2020/12/02 08:15:03;;;;;;;13.15;9.48;;;4.70;99.90;;;;;;5086892;28;20713;-56
2020/12/02 08:17:29;;;;;;;14.48;10.38;;;4.60;99.90;;;;;;5087761;28;20199;-56
2020/12/02 08:19:58;;;;;;;16.20;10.60;;;4.60;99.90;;;;;;5087255;28;20198;-58
2020/12/02 08:22:27;;;;;;;14.88;10.07;;;4.70;99.90;;;;;;5089157;28;20191;-56
2020/12/02 08:25:11;;;;;;;20.20;11.13;;;4.80;99.90;;;;;;5079545;28;20319;-57
2020/12/02 08:27:37;;;;;;;15.45;10.25;;;4.60;99.90;;;;;;5087200;28;20653;-57
2020/12/02 08:30:15;;;;;;;15.63;9.70;;;4.80;99.90;;;;;;5087655;28;20192;-55
2020/12/02 08:32:47;;;;;;;12.77;9.05;;;4.60;99.90;;;;;;5085899;28;20438;-57
2020/12/02 08:35:41;;;;;;;17.50;10.68;;;4.60;99.90;;;;;;5096043;28;20299;-54
2020/12/02 08:38:23;;;;;;;12.02;9.43;;;4.50;99.90;;;;;;5083689;28;20185;-54
2020/12/02 08:40:51;;;;;;;14.60;9.43;;;4.70;99.90;;;;;;5086573;28;20192;-55
2020/12/02 08:43:31;;;;;;;15.60;10.00;;;4.50;99.90;;;;;;5087543;28;20216;-55
2020/12/02 08:45:57;;;;;;;12.57;9.90;;;4.50;99.90;;;;;;5084650;28;20738;-56
2020/12/02 08:48:24;;;;;;;14.67;10.70;;;4.50;99.90;;;;;;5088628;28;20208;-56
2020/12/02 08:50:49;;;;;;;16.80;8.85;;;4.50;99.90;;;;;;5086900;28;20282;-53
2020/12/02 08:53:22;;;;;;;12.07;9.63;;;4.70;99.90;;;;;;5087460;28;20650;-54
2020/12/02 08:55:48;;;;;;;13.73;8.32;;;4.60;99.90;;;;;;5086620;28;20207;-53
2020/12/02 08:58:13;;;;;;;14.27;9.90;;;4.40;99.90;;;;;;5087318;28;20205;-53
2020/12/02 09:00:39;;;;;;;13.07;9.30;;;4.50;99.90;;;;;;5086297;28;20198;-53
2020/12/02 09:03:04;;;;;;;12.27;9.80;;;4.50;99.90;;;;;;5086439;28;20263;-53
2020/12/02 09:05:31;;;;;;;12.30;8.80;;;4.50;99.90;;;;;;5082038;28;20969;-53
2020/12/02 09:07:57;;;;;;;11.80;8.45;;;4.40;99.90;;;;;;5078278;28;20200;-53
2020/12/02 09:10:23;;;;;;;12.83;9.23;;;4.50;99.90;;;;;;5082916;28;20206;-52
2020/12/02 09:12:49;;;;;;;15.40;10.40;;;4.30;99.90;;;;;;5086512;28;20180;-53
2020/12/02 09:15:14;;;;;;;13.43;9.00;;;4.30;99.90;;;;;;5086805;28;21108;-52
2020/12/02 09:17:40;;;;;;;12.20;8.77;;;4.20;99.90;;;;;;5084318;28;20203;-54
2020/12/02 09:20:06;;;;;;;11.97;8.33;;;4.20;99.90;;;;;;5078162;28;20261;-54
2020/12/02 09:22:31;;;;;;;11.30;8.30;;;4.10;99.90;;;;;;5085980;28;20680;-54
2020/12/02 09:24:57;;;;;;;14.00;8.70;;;4.10;99.90;;;;;;5086848;28;20459;-54
2020/12/02 09:27:23;;;;;;;16.97;11.07;;;4.40;99.90;;;;;;5093213;28;20226;-54
2020/12/02 09:29:48;;;;;;;10.17;7.30;;;4.20;99.90;;;;;;5086174;28;20180;-57
2020/12/02 09:32:14;;;;;;;11.57;8.27;;;4.30;99.90;;;;;;5081885;28;20184;-53
2020/12/02 09:34:39;;;;;;;11.53;9.07;;;4.40;99.90;;;;;;5093133;28;20567;-53
2020/12/02 09:37:12;;;;;;;10.70;8.50;;;4.60;99.90;;;;;;5085998;28;20188;-53
2020/12/02 09:39:39;;;;;;;11.05;7.95;;;4.30;99.90;;;;;;5085599;28;20481;-53
2020/12/02 09:42:26;;;;;;;10.55;8.05;;;4.40;99.90;;;;;;5091105;28;20191;-53
2020/12/02 09:45:12;;;;;;;12.45;7.90;;;4.40;99.90;;;;;;5088389;28;20215;-55
2020/12/02 09:47:38;;;;;;;10.98;8.35;;;4.10;99.90;;;;;;5099353;28;20208;-55
2020/12/02 09:50:05;;;;;;;12.65;8.55;;;4.50;99.90;;;;;;5088441;28;20263;-55
2020/12/02 09:52:37;;;;;;;12.70;8.05;;;4.40;99.90;;;;;;5106635;28;20195;-55
2020/12/02 09:55:09;;;;;;;11.38;7.30;;;3.80;99.90;;;;;;5088739;28;20245;-54
2020/12/02 09:57:35;;;;;;;11.80;7.78;;;4.30;99.90;;;;;;5087342;28;20193;-54
2020/12/02 10:00:01;;;;;;;11.60;7.97;;;4.30;99.90;;;;;;5103738;28;20234;-55
2020/12/02 10:02:35;;;;;;;10.13;7.40;;;4.60;99.90;;;;;;5087644;28;20249;-54
2020/12/02 10:05:52;;;;;;;12.48;8.52;;;4.40;99.90;;;;;;5084658;28;20208;-54
2020/12/02 10:08:51;;;;;;;9.65;6.55;;;4.60;99.90;;;;;;5065993;28;20227;-52
2020/12/02 10:11:36;;;;;;;12.50;8.05;;;4.50;99.90;;;;;;5087804;28;20548;-52
2020/12/02 10:14:35;;;;;;;12.27;7.45;;;4.50;99.90;;;;;;5084730;28;20607;-52
2020/12/02 10:17:34;;;;;;;12.15;7.90;;;4.60;99.90;;;;;;5090240;28;20177;-53
2020/12/02 10:20:29;;;;;;;10.80;8.05;;;4.60;99.90;;;;;;5090662;28;20213;-53
2020/12/02 10:23:01;;;;;;;13.13;8.40;;;4.90;99.90;;;;;;5084213;28;20181;-54
2020/12/02 10:25:35;;;;;;;10.18;8.07;;;4.60;99.90;;;;;;5090016;28;20217;-53
2020/12/02 10:28:21;;;;;;;11.00;8.85;;;4.60;99.90;;;;;;5106783;27;20743;-53
2020/12/02 10:31:22;;;;;;;13.38;8.57;;;4.70;99.90;;;;;;5088388;28;20205;-53
2020/12/02 10:34:14;;;;;;;13.18;8.80;;;4.80;99.90;;;;;;5084202;28;20197;-53
2020/12/02 10:36:45;;;;;;;13.02;9.88;;;4.60;99.90;;;;;;5089531;28;20255;-52
2020/12/02 10:39:17;;;;;;;14.93;9.50;;;4.40;99.90;;;;;;5085848;28;20227;-54
2020/12/02 10:42:07;;;;;;;13.38;10.50;;;4.50;99.90;;;;;;5085723;28;20181;-52
2020/12/02 10:45:00;;;;;;;15.93;10.13;;;4.60;99.90;;;;;;5081397;28;20253;-53
2020/12/02 10:48:03;;;;;;;17.83;11.38;;;4.50;99.90;;;;;;5100018;28;20830;-53
2020/12/02 10:50:32;;;;;;;16.20;11.00;;;4.60;99.90;;;;;;5084786;28;20281;-52
2020/12/02 10:53:01;;;;;;;16.90;11.48;;;4.70;99.90;;;;;;5094849;28;20604;-52
2020/12/02 10:55:31;;;;;;;14.02;10.70;;;4.70;99.90;;;;;;5086323;28;20201;-52
2020/12/02 10:58:00;;;;;;;17.10;10.43;;;4.60;99.90;;;;;;5084190;28;20211;-53
2020/12/02 11:00:26;;;;;;;19.40;12.43;;;4.70;99.90;;;;;;5088157;28;20191;-52
2020/12/02 11:03:25;;;;;;;15.55;10.80;;;4.60;99.90;;;;;;5089099;28;20212;-52
2020/12/02 11:06:22;;;;;;;16.25;10.88;;;4.80;99.90;;;;;;5101623;27;20209;-54
2020/12/02 11:09:05;;;;;;;17.77;11.27;;;4.70;99.90;;;;;;5092168;28;20196;-54
2020/12/02 11:11:47;;;;;;;17.98;11.73;;;4.70;99.90;;;;;;5079267;28;20673;-54
2020/12/02 11:14:30;;;;;;;20.67;12.93;;;4.30;99.90;;;;;;5085652;28;20231;-55
2020/12/02 11:17:11;;;;;;;18.00;12.80;;;4.60;99.90;;;;;;5078302;28;20264;-55
2020/12/02 11:19:50;;;;;;;16.92;10.95;;;4.10;99.90;;;;;;5086795;28;20184;-55
2020/12/02 11:22:30;;;;;;;18.65;12.75;;;4.60;99.90;;;;;;5085380;28;20676;-55
2020/12/02 11:25:15;;;;;;;20.88;12.27;;;4.50;99.90;;;;;;5090427;28;20246;-55
2020/12/02 11:27:43;;;;;;;20.23;12.18;;;4.50;99.90;;;;;;5088321;28;20287;-55
2020/12/02 11:30:16;;;;;;;18.50;12.75;;;4.40;99.90;;;;;;5088131;28;20180;-55
2020/12/02 11:32:55;;;;;;;17.00;11.38;;;4.40;99.90;;;;;;5088501;28;20212;-55
2020/12/02 11:35:42;;;;;;;17.65;10.48;;;4.70;99.90;;;;;;5084104;28;20837;-55
2020/12/02 11:38:31;;;;;;;16.15;10.65;;;4.70;99.90;;;;;;5079463;28;20193;-55
2020/12/02 11:41:05;;;;;;;17.50;11.13;;;4.70;99.90;;;;;;5096410;28;20339;-55
2020/12/02 11:43:54;;;;;;;16.70;11.00;;;4.80;99.90;;;;;;5088049;28;20214;-55
2020/12/02 11:46:22;;;;;;;15.27;9.80;;;4.70;99.90;;;;;;5089535;28;20200;-55
2020/12/02 11:49:17;;;;;;;16.38;11.27;;;4.60;99.90;;;;;;5105493;28;20234;-55
2020/12/02 11:52:18;;;;;;;16.25;10.05;;;4.60;99.90;;;;;;5096730;28;20189;-55
2020/12/02 11:54:44;;;;;;;15.68;10.18;;;4.50;99.90;;;;;;5082512;28;20207;-55
2020/12/02 11:57:11;;;;;;;19.05;10.80;;;4.60;99.90;;;;;;5083524;28;20177;-55
2020/12/02 11:59:37;;;;;;;17.27;11.25;;;4.80;99.90;;;;;;5073611;28;20186;-55
2020/12/02 12:02:26;;;;;;;16.33;10.43;;;4.50;99.90;;;;;;5085837;28;20535;-55
2020/12/02 12:05:00;;;;;;;19.98;11.70;;;4.60;99.90;;;;;;5086800;28;20712;-55
2020/12/02 12:07:41;;;;;;;17.02;10.82;;;4.50;99.90;;;;;;5079769;28;20216;-55
2020/12/02 12:10:13;;;;;;;19.48;11.05;;;4.60;99.90;;;;;;5075715;28;20189;-55
2020/12/02 12:13:04;;;;;;;18.38;10.20;;;4.60;99.90;;;;;;5085268;28;20188;-55
2020/12/02 12:15:38;;;;;;;17.80;10.75;;;4.70;99.90;;;;;;5088325;28;20200;-55
2020/12/02 12:18:16;;;;;;;14.68;10.63;;;4.50;99.90;;;;;;5086955;28;20311;-56
2020/12/02 12:20:48;;;;;;;18.75;11.63;;;4.60;99.90;;;;;;5087934;28;20184;-56
2020/12/02 12:23:19;;;;;;;18.58;10.40;;;4.40;99.90;;;;;;5087715;28;20181;-56
2020/12/02 12:25:45;;;;;;;17.65;11.40;;;4.90;99.90;;;;;;5085535;28;20250;-56
2020/12/02 12:28:16;;;;;;;16.83;11.70;;;4.40;99.90;;;;;;5085342;28;20516;-55
2020/12/02 12:30:42;;;;;;;20.20;11.75;;;4.30;99.90;;;;;;5088725;28;20181;-55
2020/12/02 12:33:25;;;;;;;20.27;12.48;;;4.20;99.90;;;;;;5083758;28;20172;-54
2020/12/02 12:35:56;;;;;;;25.70;12.98;;;4.20;99.90;;;;;;5099468;27;20197;-54
2020/12/02 12:38:43;;;;;;;17.65;11.30;;;4.00;99.90;;;;;;5084629;28;20250;-54
2020/12/02 12:41:27;;;;;;;20.70;12.00;;;4.30;99.90;;;;;;5074164;28;20181;-55
2020/12/02 12:44:01;;;;;;;22.10;11.77;;;3.70;99.90;;;;;;5082800;28;20283;-55
2020/12/02 12:47:02;;;;;;;20.50;11.18;;;4.00;99.90;;;;;;5085015;28;20214;-54
2020/12/02 12:49:30;;;;;;;19.73;12.35;;;4.10;99.90;;;;;;5073046;28;20650;-54
2020/12/02 12:52:01;;;;;;;16.10;10.73;;;4.00;99.90;;;;;;5087418;28;20181;-55
2020/12/02 12:54:27;;;;;;;16.77;9.80;;;4.20;99.90;;;;;;5076882;28;20211;-54
2020/12/02 12:56:56;;;;;;;16.38;10.23;;;4.10;99.90;;;;;;5088266;28;20219;-54
2020/12/02 12:59:23;;;;;;;20.55;11.50;;;4.10;99.90;;;;;;5085155;28;20810;-54
2020/12/02 13:01:52;;;;;;;17.30;11.32;;;4.10;99.90;;;;;;5085972;28;20282;-54
2020/12/02 13:04:21;;;;;;;19.52;11.13;;;4.10;99.90;;;;;;5087616;28;20692;-54
2020/12/02 13:07:15;;;;;;;17.48;10.75;;;4.20;99.90;;;;;;5084646;28;20213;-54
2020/12/02 13:09:47;;;;;;;17.45;10.20;;;4.10;99.90;;;;;;5075090;28;20176;-54
2020/12/02 13:12:22;;;;;;;16.48;10.77;;;4.40;99.90;;;;;;5081859;28;20219;-54
2020/12/02 13:15:13;;;;;;;17.48;11.45;;;4.30;99.90;;;;;;5095104;28;20196;-57